Time;durP1;ratioP1;P1;durP2;ratioP2;P2;SDS_P1;SDS_P2;PMS_P1;PMS_P2;Temp;Humidity;BMP_temperature;BMP_pressure;BME280_temperature;BME280_humidity;BME280_pressure;Samples;Min_cycle;Max_cycle;Signal;HPM_P1;HPM_P2
2022/03/02 00:01:56;;;;;;;37.83;23.05;;;5.90;99.90;;;;;;4923742;29;20051;-93
2022/03/02 00:04:22;;;;;;;41.10;24.35;;;5.90;99.90;;;;;;4941366;29;20047;-93
2022/03/02 00:06:48;;;;;;;41.63;23.67;;;5.90;99.90;;;;;;4941645;29;20047;-93
2022/03/02 00:09:14;;;;;;;41.35;23.85;;;5.80;99.90;;;;;;4941032;29;20559;-93
2022/03/02 00:11:40;;;;;;;39.90;24.88;;;5.80;99.90;;;;;;4941565;29;20043;-93
2022/03/02 00:14:06;;;;;;;43.38;25.20;;;5.80;99.90;;;;;;4925469;29;20055;-93
2022/03/02 00:16:33;;;;;;;39.58;24.00;;;6.10;99.90;;;;;;4925604;29;20451;-93
2022/03/02 00:19:00;;;;;;;41.85;24.33;;;5.80;99.90;;;;;;4941449;29;20134;-93
2022/03/02 00:21:26;;;;;;;44.53;25.42;;;5.80;99.90;;;;;;4941304;29;20047;-92
2022/03/02 00:23:52;;;;;;;43.20;24.98;;;5.80;99.90;;;;;;4940970;29;20403;-92
2022/03/02 00:26:18;;;;;;;44.35;25.33;;;5.80;99.90;;;;;;4941189;29;20139;-93
2022/03/02 00:28:44;;;;;;;38.05;23.90;;;5.70;99.90;;;;;;4925206;29;20054;-92
2022/03/02 00:31:10;;;;;;;39.33;24.08;;;5.80;99.90;;;;;;4925639;29;20043;-92
2022/03/02 00:33:36;;;;;;;43.47;25.35;;;5.80;99.90;;;;;;4940590;29;20142;-93
2022/03/02 00:36:02;;;;;;;39.60;24.58;;;5.80;99.90;;;;;;4941146;29;20130;-92
2022/03/02 00:38:28;;;;;;;39.80;25.35;;;5.80;99.90;;;;;;4941246;29;20039;-93
2022/03/02 00:40:54;;;;;;;39.58;24.38;;;5.60;99.90;;;;;;4940923;29;20462;-92
2022/03/02 00:43:19;;;;;;;39.83;24.45;;;5.70;99.90;;;;;;4940780;29;20140;-92
2022/03/02 00:45:45;;;;;;;41.92;24.85;;;5.70;99.90;;;;;;4925019;29;20097;-93
2022/03/02 00:48:11;;;;;;;39.28;24.30;;;6.00;99.90;;;;;;4940369;29;20047;-93
2022/03/02 00:50:38;;;;;;;39.22;24.33;;;5.60;99.90;;;;;;4925088;29;20043;-93
2022/03/02 00:53:08;;;;;;;41.13;25.05;;;5.60;99.90;;;;;;4924689;29;20566;-93
2022/03/02 00:55:37;;;;;;;37.08;23.95;;;5.80;99.90;;;;;;4909588;29;20105;-93
2022/03/02 00:58:05;;;;;;;42.45;25.10;;;5.60;99.90;;;;;;4924859;29;20142;-94
2022/03/02 01:00:31;;;;;;;39.85;25.30;;;5.60;99.90;;;;;;4924606;29;20107;-93
2022/03/02 01:02:59;;;;;;;39.67;23.83;;;5.80;99.90;;;;;;4924689;29;20407;-93
2022/03/02 01:05:25;;;;;;;42.58;25.23;;;5.70;99.90;;;;;;4924850;29;20415;-93
2022/03/02 01:07:50;;;;;;;41.45;25.58;;;5.90;99.90;;;;;;4924447;29;20042;-92
2022/03/02 01:10:17;;;;;;;38.70;24.27;;;5.60;99.90;;;;;;4923924;29;20051;-92
2022/03/02 01:12:43;;;;;;;43.30;25.48;;;5.60;99.90;;;;;;4939287;29;20063;-92
2022/03/02 01:15:10;;;;;;;40.38;24.67;;;5.90;99.90;;;;;;4924145;29;20402;-94
2022/03/02 01:17:37;;;;;;;41.85;24.85;;;5.60;99.90;;;;;;4939991;29;20043;-93
2022/03/02 01:20:08;;;;;;;42.35;25.42;;;5.50;99.90;;;;;;4940187;29;20141;-92
2022/03/02 01:22:34;;;;;;;42.60;25.80;;;5.50;99.90;;;;;;4924366;29;20130;-93
2022/03/02 01:25:01;;;;;;;41.25;25.67;;;5.50;99.90;;;;;;4923718;29;20051;-93
2022/03/02 01:27:27;;;;;;;39.97;24.90;;;5.50;99.90;;;;;;4924016;29;20486;-92
2022/03/02 01:29:53;;;;;;;42.75;26.27;;;5.50;99.90;;;;;;4940105;29;20050;-93
2022/03/02 01:32:20;;;;;;;42.55;24.95;;;5.50;99.90;;;;;;4939715;29;20418;-93
2022/03/02 01:34:47;;;;;;;46.60;25.65;;;5.50;99.90;;;;;;4923781;29;20051;-92
2022/03/02 01:37:13;;;;;;;42.90;25.58;;;5.50;99.90;;;;;;4940097;29;20051;-93
2022/03/02 01:39:39;;;;;;;47.05;26.67;;;5.60;99.90;;;;;;4923722;29;20077;-93
2022/03/02 01:42:05;;;;;;;43.97;26.48;;;5.40;99.90;;;;;;4924107;29;20491;-94
2022/03/02 01:44:32;;;;;;;41.30;25.42;;;5.40;99.90;;;;;;4939166;29;20043;-93
2022/03/02 01:46:58;;;;;;;43.55;26.92;;;5.40;99.90;;;;;;4939243;29;20402;-93
2022/03/02 01:49:24;;;;;;;43.70;25.95;;;5.40;99.90;;;;;;4923761;29;20059;-93
2022/03/02 01:51:50;;;;;;;42.20;25.58;;;5.50;99.90;;;;;;4923354;29;20070;-92
2022/03/02 01:54:15;;;;;;;42.53;25.98;;;5.50;99.90;;;;;;4923845;29;20047;-92
2022/03/02 01:56:41;;;;;;;42.67;26.27;;;5.40;99.90;;;;;;4923709;29;20117;-93
2022/03/02 01:59:07;;;;;;;41.35;25.20;;;5.50;99.90;;;;;;4923019;29;20047;-93
2022/03/02 02:01:33;;;;;;;45.80;26.13;;;5.40;99.90;;;;;;4939520;29;20053;-93
2022/03/02 02:04:01;;;;;;;44.60;25.75;;;5.30;99.90;;;;;;4939251;29;20043;-92
2022/03/02 02:06:27;;;;;;;46.33;26.02;;;5.30;99.90;;;;;;4939648;29;20066;-92
2022/03/02 02:08:53;;;;;;;48.67;27.48;;;5.30;99.90;;;;;;4923740;28;20051;-93
2022/03/02 02:11:19;;;;;;;46.33;26.50;;;5.20;99.90;;;;;;4923628;29;20046;-93
2022/03/02 02:13:45;;;;;;;43.83;25.40;;;5.10;99.90;;;;;;4939284;29;20073;-93
2022/03/02 02:16:13;;;;;;;45.97;26.50;;;5.10;99.90;;;;;;4939022;29;20055;-93
2022/03/02 02:18:39;;;;;;;45.90;26.83;;;5.30;99.90;;;;;;4954897;29;20098;-93
2022/03/02 02:21:08;;;;;;;44.03;26.63;;;5.20;99.90;;;;;;4923511;29;20047;-93
2022/03/02 02:23:35;;;;;;;46.03;26.75;;;5.10;99.90;;;;;;4923187;28;20066;-93
2022/03/02 02:26:01;;;;;;;46.50;27.42;;;5.10;99.90;;;;;;4923164;29;20160;-91
2022/03/02 02:28:28;;;;;;;44.33;26.67;;;5.20;99.90;;;;;;4938876;29;20119;-93
2022/03/02 02:30:55;;;;;;;45.15;26.80;;;5.50;99.90;;;;;;4939094;29;20522;-93
2022/03/02 02:33:22;;;;;;;46.67;25.73;;;5.00;99.90;;;;;;4923245;29;20055;-94
2022/03/02 02:35:48;;;;;;;44.95;25.08;;;5.20;99.90;;;;;;4939017;29;20039;-93
2022/03/02 02:38:16;;;;;;;48.13;25.63;;;5.40;99.90;;;;;;4923099;29;20363;-94
2022/03/02 02:40:42;;;;;;;44.00;25.73;;;5.30;99.90;;;;;;4923436;29;20396;-92
2022/03/02 02:43:08;;;;;;;45.72;26.05;;;5.50;99.90;;;;;;4938731;29;20055;-93
2022/03/02 02:45:34;;;;;;;44.83;26.65;;;5.20;99.90;;;;;;4922759;29;20043;-93
2022/03/02 02:48:00;;;;;;;45.90;26.77;;;5.20;99.90;;;;;;4922218;29;20043;-93
2022/03/02 02:50:31;;;;;;;45.75;27.67;;;5.20;99.90;;;;;;4938927;29;20039;-94
2022/03/02 02:53:01;;;;;;;48.13;26.38;;;5.50;99.90;;;;;;4923039;29;20117;-93
2022/03/02 02:55:28;;;;;;;44.58;26.15;;;5.20;99.90;;;;;;4923395;29;20059;-93
2022/03/02 02:57:55;;;;;;;45.03;25.98;;;5.20;99.90;;;;;;4938608;29;20051;-93
2022/03/02 03:00:24;;;;;;;44.40;25.98;;;5.40;99.90;;;;;;4938478;29;20039;-93
2022/03/02 03:02:51;;;;;;;45.30;26.92;;;5.20;99.90;;;;;;4922637;29;20090;-93
2022/03/02 03:05:20;;;;;;;43.13;27.02;;;5.10;99.90;;;;;;4938538;29;20055;-93
2022/03/02 03:07:47;;;;;;;44.42;26.17;;;5.50;99.90;;;;;;4922561;29;20505;-93
2022/03/02 03:10:15;;;;;;;44.58;26.45;;;5.20;99.90;;;;;;4922740;29;20051;-93
2022/03/02 03:12:42;;;;;;;44.65;26.98;;;5.10;99.90;;;;;;4938739;29;20051;-93
2022/03/02 03:15:11;;;;;;;44.92;25.73;;;5.10;99.90;;;;;;4922762;29;20384;-93
2022/03/02 03:17:37;;;;;;;48.97;27.25;;;5.10;99.90;;;;;;4922806;29;20572;-92
2022/03/02 03:20:05;;;;;;;43.83;25.65;;;5.10;99.90;;;;;;4938516;29;20522;-93
2022/03/02 03:22:30;;;;;;;49.00;27.65;;;5.10;99.90;;;;;;4938683;29;20047;-93
2022/03/02 03:24:56;;;;;;;43.80;27.23;;;5.10;99.90;;;;;;4938556;29;20147;-93
2022/03/02 03:27:22;;;;;;;48.58;26.95;;;5.30;99.90;;;;;;4922313;29;20047;-93
2022/03/02 03:29:47;;;;;;;45.95;26.98;;;5.40;99.90;;;;;;4922441;29;20047;-93
2022/03/02 03:32:13;;;;;;;47.28;27.98;;;5.00;99.90;;;;;;4922275;29;20043;-93
2022/03/02 03:34:39;;;;;;;46.88;26.98;;;5.10;99.90;;;;;;4922365;29;20398;-92
2022/03/02 03:37:05;;;;;;;50.78;28.52;;;5.00;99.90;;;;;;4940334;29;20046;-92
2022/03/02 03:39:30;;;;;;;49.92;28.05;;;5.00;99.90;;;;;;4926187;29;20051;-93
2022/03/02 03:41:56;;;;;;;43.17;26.85;;;4.90;99.90;;;;;;4926044;29;20046;-93
2022/03/02 03:44:25;;;;;;;48.63;27.58;;;5.40;99.90;;;;;;4926319;29;20120;-92
2022/03/02 03:46:51;;;;;;;47.38;27.05;;;5.20;99.90;;;;;;4925979;29;20050;-92
2022/03/02 03:49:16;;;;;;;50.65;26.60;;;4.90;99.90;;;;;;4926043;29;20047;-93
2022/03/02 03:51:42;;;;;;;50.25;28.20;;;4.70;99.90;;;;;;4942002;29;20090;-93
2022/03/02 03:54:09;;;;;;;49.10;27.95;;;4.80;99.90;;;;;;4925827;29;20102;-93
2022/03/02 03:56:34;;;;;;;47.38;26.90;;;4.80;99.90;;;;;;4925819;29;20079;-93
2022/03/02 03:59:00;;;;;;;47.75;27.90;;;5.00;99.90;;;;;;4926198;29;20103;-93
2022/03/02 04:01:26;;;;;;;46.35;27.27;;;4.70;99.90;;;;;;4957384;29;20056;-93
2022/03/02 04:03:52;;;;;;;49.10;27.05;;;4.80;99.90;;;;;;4925836;29;20054;-92
2022/03/02 04:06:18;;;;;;;46.13;26.83;;;4.70;99.90;;;;;;4925771;29;20048;-92
2022/03/02 04:08:45;;;;;;;50.67;27.92;;;4.70;99.90;;;;;;4925261;29;20102;-93
2022/03/02 04:11:11;;;;;;;48.20;26.85;;;4.70;99.90;;;;;;4907943;29;20058;-93
2022/03/02 04:13:36;;;;;;;49.88;27.85;;;4.70;99.90;;;;;;4938432;29;20487;-93
2022/03/02 04:16:03;;;;;;;51.22;26.52;;;4.70;99.90;;;;;;4906115;29;20150;-93
2022/03/02 04:18:31;;;;;;;47.80;26.95;;;4.70;99.90;;;;;;4922771;29;20142;-93
2022/03/02 04:20:58;;;;;;;47.80;26.40;;;4.70;99.90;;;;;;4906795;29;20099;-92
2022/03/02 04:23:24;;;;;;;52.25;28.55;;;4.80;99.90;;;;;;4906816;29;20057;-93
2022/03/02 04:25:49;;;;;;;48.28;27.80;;;4.90;99.90;;;;;;4906641;29;20134;-92
2022/03/02 04:28:15;;;;;;;47.95;28.55;;;4.70;99.90;;;;;;4906010;29;20406;-92
2022/03/02 04:30:41;;;;;;;50.70;27.90;;;4.80;99.90;;;;;;4922052;29;20533;-93
2022/03/02 04:33:07;;;;;;;46.15;26.92;;;4.80;99.90;;;;;;4906305;29;20085;-93
2022/03/02 04:35:34;;;;;;;53.35;28.20;;;4.80;99.90;;;;;;4906216;29;20096;-93
2022/03/02 04:38:01;;;;;;;54.55;28.60;;;5.00;99.90;;;;;;4906320;29;20403;-93
2022/03/02 04:40:26;;;;;;;57.70;28.63;;;4.60;99.90;;;;;;4906193;29;20604;-93
2022/03/02 04:42:54;;;;;;;49.80;27.73;;;4.80;99.90;;;;;;4937692;29;20052;-92
2022/03/02 04:45:21;;;;;;;49.38;28.80;;;4.70;99.90;;;;;;4906038;29;20048;-92
2022/03/02 04:47:47;;;;;;;51.33;27.52;;;4.70;99.90;;;;;;4905240;29;20411;-93
2022/03/02 04:50:13;;;;;;;48.92;26.98;;;4.80;99.90;;;;;;4906354;29;20044;-92
2022/03/02 04:52:39;;;;;;;51.22;28.80;;;4.70;99.90;;;;;;4906037;29;20468;-92
2022/03/02 04:55:09;;;;;;;53.05;28.95;;;4.90;99.90;;;;;;4937244;29;20107;-92
2022/03/02 04:57:36;;;;;;;53.70;28.00;;;4.50;99.90;;;;;;4906025;29;20104;-93
2022/03/02 05:00:07;;;;;;;50.20;28.77;;;4.80;99.90;;;;;;4937571;29;20853;-92
2022/03/02 05:02:32;;;;;;;50.67;28.58;;;4.50;99.90;;;;;;4921979;29;20376;-93
2022/03/02 05:04:58;;;;;;;47.35;27.33;;;4.50;99.90;;;;;;4921257;29;20095;-91
2022/03/02 05:07:24;;;;;;;54.38;29.95;;;4.90;99.90;;;;;;4905638;29;20099;-92
2022/03/02 05:09:50;;;;;;;47.47;28.38;;;4.60;99.90;;;;;;4905641;29;20119;-92
2022/03/02 05:12:16;;;;;;;53.92;28.10;;;4.50;99.90;;;;;;4905373;29;20142;-92
2022/03/02 05:14:41;;;;;;;47.90;27.75;;;4.50;99.90;;;;;;4905290;29;20047;-92
2022/03/02 05:17:07;;;;;;;52.33;29.52;;;4.40;99.90;;;;;;4905426;29;20059;-92
2022/03/02 05:19:33;;;;;;;50.78;29.02;;;4.50;99.90;;;;;;4905569;29;20058;-92
2022/03/02 05:21:59;;;;;;;56.17;27.50;;;4.40;99.90;;;;;;4921355;29;20138;-91
2022/03/02 05:24:25;;;;;;;51.97;29.55;;;4.30;99.90;;;;;;4921146;29;20118;-91
2022/03/02 05:26:50;;;;;;;51.85;28.73;;;4.30;99.90;;;;;;4905245;29;20047;-92
2022/03/02 05:29:16;;;;;;;52.92;27.77;;;4.30;99.90;;;;;;4905398;29;20054;-92
2022/03/02 05:31:42;;;;;;;52.22;28.85;;;4.30;99.90;;;;;;4904955;29;20059;-91
2022/03/02 05:34:07;;;;;;;54.17;28.33;;;4.30;99.90;;;;;;4904901;29;20047;-92
2022/03/02 05:36:33;;;;;;;54.10;28.45;;;4.30;99.90;;;;;;4920984;29;20047;-92
2022/03/02 05:38:59;;;;;;;47.65;28.48;;;4.30;99.90;;;;;;4921193;29;20056;-91
2022/03/02 05:41:25;;;;;;;54.25;28.63;;;4.60;99.90;;;;;;4920864;29;20048;-93
2022/03/02 05:43:53;;;;;;;48.00;27.88;;;4.40;99.90;;;;;;4920352;29;20119;-93
2022/03/02 05:46:19;;;;;;;51.75;28.88;;;4.30;99.90;;;;;;4920737;29;20050;-93
2022/03/02 05:48:44;;;;;;;48.92;28.00;;;4.20;99.90;;;;;;4905138;29;20040;-91
2022/03/02 05:51:10;;;;;;;54.92;29.42;;;4.30;99.90;;;;;;4920510;29;20452;-92
2022/03/02 05:53:36;;;;;;;52.08;30.00;;;4.30;99.90;;;;;;4920697;29;20050;-92
2022/03/02 05:56:02;;;;;;;52.70;28.80;;;4.30;99.90;;;;;;4904556;29;20059;-93
2022/03/02 05:58:28;;;;;;;53.72;30.67;;;4.20;99.90;;;;;;4904454;29;20096;-92
2022/03/02 06:00:54;;;;;;;56.47;31.55;;;4.40;99.90;;;;;;4919893;29;20476;-92
2022/03/02 06:03:20;;;;;;;48.83;27.77;;;4.40;99.90;;;;;;4919523;29;20052;-92
2022/03/02 06:05:48;;;;;;;51.55;27.17;;;4.20;99.90;;;;;;4904938;29;20408;-92
2022/03/02 06:08:13;;;;;;;52.10;28.80;;;4.60;99.90;;;;;;4920136;29;20048;-92
2022/03/02 06:10:39;;;;;;;54.67;28.60;;;4.30;99.90;;;;;;4917590;29;20047;-92
2022/03/02 06:13:05;;;;;;;54.13;29.58;;;4.10;99.90;;;;;;4939214;29;20109;-91
2022/03/02 06:15:31;;;;;;;56.60;29.70;;;4.10;99.90;;;;;;4923220;29;20058;-92
2022/03/02 06:18:01;;;;;;;61.10;31.00;;;4.10;99.90;;;;;;4922841;29;20039;-92
2022/03/02 06:20:28;;;;;;;52.03;29.38;;;4.00;99.90;;;;;;4923124;29;20055;-91
2022/03/02 06:22:54;;;;;;;57.47;29.98;;;4.00;99.90;;;;;;4938642;29;20059;-92
2022/03/02 06:25:20;;;;;;;54.83;29.83;;;4.00;99.90;;;;;;4923399;29;20079;-92
2022/03/02 06:27:46;;;;;;;51.95;29.95;;;4.00;99.90;;;;;;4923044;29;20050;-92
2022/03/02 06:30:12;;;;;;;56.00;30.88;;;4.30;99.90;;;;;;4922787;29;20051;-92
2022/03/02 06:32:38;;;;;;;54.92;28.70;;;4.20;99.90;;;;;;4923161;29;20138;-91
2022/03/02 06:35:06;;;;;;;56.15;29.92;;;4.10;99.90;;;;;;4922926;29;20047;-92
2022/03/02 06:37:33;;;;;;;53.13;29.10;;;4.00;99.90;;;;;;4923351;29;20087;-92
2022/03/02 06:40:10;;;;;;;54.70;30.20;;;3.90;99.90;;;;;;4938573;29;20095;-92
2022/03/02 06:43:08;;;;;;;53.47;29.55;;;4.00;99.90;;;;;;4938691;29;20143;-92
2022/03/02 06:45:43;;;;;;;54.50;30.40;;;4.10;99.90;;;;;;4923181;29;20054;-92
2022/03/02 06:48:21;;;;;;;53.03;29.48;;;4.10;99.90;;;;;;4922735;29;20053;-92
2022/03/02 06:50:52;;;;;;;51.58;29.17;;;4.40;99.90;;;;;;4922875;29;20411;-92
2022/03/02 06:53:21;;;;;;;51.17;29.00;;;4.40;99.90;;;;;;4938518;29;20447;-93
2022/03/02 06:55:48;;;;;;;51.47;28.88;;;4.20;99.90;;;;;;4922410;29;20047;-92
2022/03/02 06:58:14;;;;;;;56.42;29.20;;;4.50;99.90;;;;;;4922895;29;20051;-92
2022/03/02 07:00:48;;;;;;;51.03;28.52;;;4.30;99.90;;;;;;4922710;29;20115;-92
2022/03/02 07:03:19;;;;;;;53.80;29.25;;;4.30;99.90;;;;;;4938734;29;20043;-92
2022/03/02 07:05:46;;;;;;;49.35;27.52;;;4.10;99.90;;;;;;4922922;29;20055;-92
2022/03/02 07:08:13;;;;;;;50.88;28.83;;;4.40;99.90;;;;;;4938143;29;20079;-92
2022/03/02 07:10:39;;;;;;;53.60;28.92;;;4.80;99.90;;;;;;4922373;29;20055;-92
2022/03/02 07:13:06;;;;;;;51.35;28.23;;;4.60;99.90;;;;;;4926853;29;20083;-93
2022/03/02 07:15:34;;;;;;;51.60;27.55;;;4.70;99.90;;;;;;4942655;29;20110;-92
2022/03/02 07:18:00;;;;;;;59.78;28.65;;;4.60;99.90;;;;;;4942423;29;20097;-92
2022/03/02 07:20:27;;;;;;;52.85;29.52;;;4.70;99.90;;;;;;4941976;29;20043;-92
2022/03/02 07:22:55;;;;;;;48.50;27.75;;;4.80;99.90;;;;;;4926581;29;20051;-92
2022/03/02 07:25:25;;;;;;;50.33;27.95;;;5.20;99.90;;;;;;4942452;29;20051;-92
2022/03/02 07:27:51;;;;;;;53.30;28.63;;;5.30;99.90;;;;;;4942146;29;20479;-92
2022/03/02 07:30:22;;;;;;;50.70;27.92;;;5.50;99.90;;;;;;4942430;29;20388;-93
2022/03/02 07:33:02;;;;;;;50.50;28.23;;;5.20;99.90;;;;;;4915078;29;20134;-92
2022/03/02 07:35:31;;;;;;;48.22;27.05;;;5.10;99.90;;;;;;4942039;29;20053;-92
2022/03/02 07:37:58;;;;;;;52.08;28.27;;;5.10;99.90;;;;;;4926361;29;20109;-92
2022/03/02 07:40:23;;;;;;;47.63;27.27;;;5.20;99.90;;;;;;4942081;29;20087;-93
2022/03/02 07:42:50;;;;;;;47.78;27.45;;;5.50;99.90;;;;;;4942163;29;20137;-92
2022/03/02 07:45:16;;;;;;;48.65;27.45;;;5.20;99.90;;;;;;4925844;29;20058;-93
2022/03/02 07:47:43;;;;;;;48.47;26.88;;;5.40;99.90;;;;;;4948397;28;20027;-94
2022/03/02 07:50:10;;;;;;;44.22;26.42;;;5.30;99.90;;;;;;4965763;28;20043;-94
2022/03/02 07:52:37;;;;;;;50.35;27.23;;;5.60;99.90;;;;;;4949180;28;20130;-93
2022/03/02 07:55:09;;;;;;;46.25;26.85;;;5.40;99.90;;;;;;4943629;29;20415;-93
2022/03/02 07:57:38;;;;;;;48.00;26.88;;;5.40;99.90;;;;;;4928413;29;20051;-92
2022/03/02 08:00:06;;;;;;;46.05;26.02;;;5.50;99.90;;;;;;4943207;29;20058;-93
2022/03/02 08:02:33;;;;;;;46.80;25.67;;;5.60;99.90;;;;;;4926476;29;20058;-93
2022/03/02 08:05:01;;;;;;;45.33;25.95;;;5.70;99.90;;;;;;4941822;29;20051;-93
2022/03/02 08:07:27;;;;;;;46.78;26.45;;;6.10;99.90;;;;;;4926443;29;20050;-92
2022/03/02 08:09:53;;;;;;;48.53;27.23;;;5.70;99.90;;;;;;4941685;29;20051;-93
2022/03/02 08:12:23;;;;;;;45.45;26.20;;;6.00;99.90;;;;;;4926672;29;20506;-92
2022/03/02 08:14:50;;;;;;;43.00;25.45;;;5.90;99.90;;;;;;4941957;29;20055;-93
2022/03/02 08:17:17;;;;;;;44.72;24.60;;;6.20;99.90;;;;;;4940939;29;20051;-93
2022/03/02 08:19:43;;;;;;;43.08;25.17;;;5.90;99.90;;;;;;4925535;29;20058;-93
2022/03/02 08:22:12;;;;;;;43.63;25.45;;;5.90;99.90;;;;;;4926579;29;20095;-92
2022/03/02 08:24:44;;;;;;;44.95;24.88;;;6.20;99.90;;;;;;4925480;29;20050;-93
2022/03/02 08:27:12;;;;;;;44.88;24.33;;;5.80;99.90;;;;;;4941539;29;20085;-92
2022/03/02 08:29:39;;;;;;;45.90;25.67;;;5.80;99.90;;;;;;4925312;29;20087;-93
2022/03/02 08:32:06;;;;;;;44.40;24.70;;;5.80;99.90;;;;;;4925081;29;20451;-93
2022/03/02 08:34:33;;;;;;;46.55;25.92;;;5.80;99.90;;;;;;4941143;29;20479;-94
2022/03/02 08:37:01;;;;;;;44.25;25.60;;;5.70;99.90;;;;;;4926094;29;20047;-94
2022/03/02 08:39:27;;;;;;;47.17;25.05;;;5.60;99.90;;;;;;4925759;29;20043;-92
2022/03/02 08:41:55;;;;;;;47.47;24.17;;;5.50;99.90;;;;;;4925511;29;20110;-93
2022/03/02 08:44:21;;;;;;;51.08;25.45;;;5.40;99.90;;;;;;4941693;29;20145;-93
2022/03/02 08:46:48;;;;;;;45.05;25.92;;;5.40;99.90;;;;;;4925369;29;20075;-93
2022/03/02 08:49:20;;;;;;;45.92;24.88;;;5.40;99.90;;;;;;4941100;29;20132;-93
2022/03/02 08:51:48;;;;;;;43.75;24.65;;;5.90;99.90;;;;;;4925536;29;20055;-93
2022/03/02 08:54:17;;;;;;;43.38;24.55;;;5.60;99.90;;;;;;4925218;29;20051;-93
2022/03/02 08:56:44;;;;;;;44.90;24.60;;;5.90;99.90;;;;;;4940932;29;20055;-92
2022/03/02 08:59:13;;;;;;;42.30;24.75;;;6.20;99.90;;;;;;4925226;29;20051;-92
2022/03/02 09:01:43;;;;;;;40.55;23.38;;;6.10;99.90;;;;;;4940643;29;20055;-93
2022/03/02 09:04:14;;;;;;;42.83;23.73;;;6.40;99.90;;;;;;4925153;29;20407;-92
2022/03/02 09:06:40;;;;;;;42.53;24.65;;;6.90;99.90;;;;;;4925599;29;20063;-93
2022/03/02 09:09:06;;;;;;;39.92;23.48;;;6.60;99.90;;;;;;4924508;28;20054;-93
2022/03/02 09:11:33;;;;;;;38.83;23.30;;;7.00;99.90;;;;;;4924935;29;20094;-93
2022/03/02 09:14:02;;;;;;;39.65;23.05;;;7.40;99.90;;;;;;4924946;29;20133;-92
2022/03/02 09:16:29;;;;;;;43.17;24.17;;;7.50;99.90;;;;;;4940919;29;20570;-93
2022/03/02 09:22:17;;;;;;;41.65;22.77;;;7.80;99.90;;;;;;4958348;28;20085;-94
2022/03/02 09:27:20;;;;;;;38.80;23.55;;;8.20;99.90;;;;;;5152289;23;20051;-94
2022/03/02 09:29:47;;;;;;;41.58;23.08;;;9.00;99.90;;;;;;4940526;29;20047;-93
2022/03/02 09:32:14;;;;;;;40.50;22.42;;;10.20;99.90;;;;;;4940433;29;20057;-94
2022/03/02 09:34:45;;;;;;;38.47;22.30;;;11.70;99.90;;;;;;4955737;28;20518;-94
2022/03/02 09:37:16;;;;;;;32.03;19.90;;;13.00;99.90;;;;;;4924979;29;20122;-94
2022/03/02 09:39:43;;;;;;;30.73;19.50;;;14.00;99.90;;;;;;4941340;29;20075;-93
2022/03/02 09:42:15;;;;;;;29.83;18.13;;;14.80;99.90;;;;;;4940269;29;20143;-94
2022/03/02 09:44:44;;;;;;;30.88;19.15;;;15.50;98.30;;;;;;4940519;29;20070;-94
2022/03/02 09:47:18;;;;;;;31.38;18.85;;;16.00;97.00;;;;;;4956487;29;20121;-95
2022/03/02 09:49:51;;;;;;;28.45;18.15;;;16.50;92.00;;;;;;4956388;29;20090;-93
2022/03/02 09:52:21;;;;;;;30.73;18.77;;;16.90;81.80;;;;;;4940068;29;20047;-94
2022/03/02 09:54:52;;;;;;;33.37;17.53;;;17.20;86.30;;;;;;4939853;29;20062;-93
2022/03/02 09:57:19;;;;;;;;;;;17.80;78.90;;;;;;4940497;29;20101;-94
2022/03/02 09:59:52;;;;;;;27.55;18.10;;;18.30;71.10;;;;;;4923842;29;19961;-94
2022/03/02 10:02:30;;;;;;;26.15;17.48;;;18.40;75.20;;;;;;4939939;29;20055;-93
2022/03/02 10:05:02;;;;;;;26.88;18.15;;;18.50;67.80;;;;;;4939942;29;20218;-94
2022/03/02 10:07:30;;;;;;;26.02;17.13;;;19.10;67.30;;;;;;4956578;29;20047;-94
2022/03/02 10:10:09;;;;;;;28.13;17.83;;;19.10;63.50;;;;;;4923872;29;20051;-93
2022/03/02 10:12:36;;;;;;;22.55;16.30;;;19.20;58.70;;;;;;4940356;29;20058;-94
2022/03/02 10:15:04;;;;;;;22.85;16.33;;;19.40;59.00;;;;;;4940212;29;20055;-95
2022/03/02 10:17:36;;;;;;;21.73;16.13;;;19.60;57.00;;;;;;4923987;29;20039;-95
2022/03/02 10:20:25;;;;;;;22.65;15.23;;;19.80;54.40;;;;;;4940312;29;20086;-94
2022/03/02 10:23:09;;;;;;;24.92;15.75;;;20.00;51.90;;;;;;4940072;29;20463;-96
2022/03/02 10:26:08;;;;;;;23.23;15.55;;;20.10;52.40;;;;;;4924306;28;20114;-94
2022/03/02 10:28:45;;;;;;;21.25;14.80;;;20.30;48.60;;;;;;4924521;29;20062;-95
2022/03/02 10:31:28;;;;;;;22.25;15.65;;;20.50;50.40;;;;;;4924652;29;20051;-94
2022/03/02 10:33:56;;;;;;;21.70;15.65;;;20.50;49.00;;;;;;4940308;29;20043;-95
2022/03/02 10:36:28;;;;;;;25.00;15.93;;;20.70;48.70;;;;;;4940558;29;20082;-94
2022/03/02 10:38:59;;;;;;;19.17;14.65;;;20.70;47.30;;;;;;4924032;29;20055;-94
2022/03/02 10:41:33;;;;;;;22.27;16.05;;;20.70;46.60;;;;;;4940493;29;20054;-95
2022/03/02 10:44:38;;;;;;;25.05;15.57;;;20.90;46.90;;;;;;4940544;29;20411;-95
2022/03/02 10:47:10;;;;;;;25.80;16.23;;;21.20;46.00;;;;;;4901723;29;20051;-94
2022/03/02 10:49:37;;;;;;;24.67;16.02;;;21.30;46.30;;;;;;4922652;29;20032;-94
2022/03/02 10:52:04;;;;;;;22.73;15.18;;;21.40;46.00;;;;;;4927031;29;20063;-94
2022/03/02 10:54:31;;;;;;;23.38;15.60;;;21.50;45.60;;;;;;4925324;29;20407;-95
2022/03/02 10:57:02;;;;;;;28.65;16.00;;;21.70;45.40;;;;;;4897438;29;20059;-94
2022/03/02 10:59:31;;;;;;;23.88;15.50;;;21.80;44.90;;;;;;4930476;29;20080;-94
2022/03/02 11:02:00;;;;;;;24.80;16.10;;;22.00;44.00;;;;;;4897348;29;20059;-95
2022/03/02 11:04:28;;;;;;;21.58;16.23;;;22.20;43.20;;;;;;4896509;29;20056;-94
2022/03/02 11:06:56;;;;;;;23.20;15.55;;;22.30;42.10;;;;;;4909436;29;20052;-94
2022/03/02 11:09:25;;;;;;;23.85;15.75;;;22.20;42.40;;;;;;4909243;28;20055;-94
2022/03/02 11:11:54;;;;;;;22.83;15.48;;;22.30;41.40;;;;;;4897160;29;20052;-94
2022/03/02 11:14:20;;;;;;;20.35;15.48;;;22.20;41.40;;;;;;4892857;29;20101;-94
2022/03/02 11:16:47;;;;;;;20.33;15.48;;;22.20;41.40;;;;;;4907849;29;20064;-94
2022/03/02 11:19:15;;;;;;;23.00;15.38;;;22.30;41.90;;;;;;4924038;29;20524;-94
2022/03/02 11:21:43;;;;;;;21.42;15.70;;;22.50;41.60;;;;;;4906690;29;20051;-95
2022/03/02 11:24:16;;;;;;;21.23;15.07;;;22.50;41.00;;;;;;4919928;29;20063;-94
2022/03/02 11:26:44;;;;;;;22.42;15.80;;;22.50;40.90;;;;;;4937256;29;20059;-95
2022/03/02 11:29:18;;;;;;;22.83;15.48;;;22.60;40.90;;;;;;4921055;29;20058;-96
2022/03/02 11:31:45;;;;;;;23.25;15.63;;;22.60;40.30;;;;;;4920930;29;20435;-94
2022/03/02 11:34:15;;;;;;;22.90;16.13;;;22.70;40.10;;;;;;4918959;29;20036;-95
2022/03/02 11:36:47;;;;;;;22.90;15.55;;;22.70;39.60;;;;;;4930065;29;20044;-95
2022/03/02 11:39:16;;;;;;;22.58;16.38;;;22.70;39.70;;;;;;4942063;28;20035;-95
2022/03/02 11:41:44;;;;;;;24.10;16.70;;;22.50;40.00;;;;;;4920349;29;20047;-95
2022/03/02 11:44:30;;;;;;;24.42;16.50;;;22.60;40.50;;;;;;4921510;29;20427;-94
2022/03/02 11:46:57;;;;;;;20.80;14.98;;;22.80;39.00;;;;;;4920907;29;20111;-95
2022/03/02 11:49:44;;;;;;;22.38;15.70;;;22.90;40.30;;;;;;4905720;29;20058;-95
2022/03/02 11:52:14;;;;;;;27.25;17.42;;;22.90;38.50;;;;;;4921488;29;20055;-94
2022/03/02 11:54:43;;;;;;;25.75;16.02;;;23.00;39.20;;;;;;4921363;29;20058;-95
2022/03/02 11:57:09;;;;;;;24.70;15.75;;;23.00;39.20;;;;;;4920601;29;20160;-95
2022/03/02 11:59:37;;;;;;;24.65;16.75;;;23.00;39.10;;;;;;4907933;29;20153;-94
2022/03/02 12:02:16;;;;;;;20.60;15.25;;;22.90;39.10;;;;;;4925085;29;20056;-95
2022/03/02 12:04:59;;;;;;;23.30;15.63;;;22.80;38.40;;;;;;4924606;29;20130;-95
2022/03/02 12:07:34;;;;;;;25.65;15.45;;;22.60;38.60;;;;;;4941723;29;20052;-95
2022/03/02 12:10:00;;;;;;;23.80;16.23;;;22.50;39.00;;;;;;4908018;29;20384;-94
2022/03/02 12:12:26;;;;;;;23.25;16.27;;;22.50;39.20;;;;;;4908651;29;20102;-94
2022/03/02 12:14:56;;;;;;;19.95;14.48;;;22.70;39.10;;;;;;4939901;29;20091;-95
2022/03/02 12:17:33;;;;;;;24.55;15.70;;;22.90;38.80;;;;;;4924437;29;20142;-94
2022/03/02 12:20:01;;;;;;;22.30;16.23;;;23.20;38.00;;;;;;4907631;29;20055;-96
2022/03/02 12:22:38;;;;;;;21.30;15.80;;;23.20;37.80;;;;;;4908557;29;20040;-96
2022/03/02 12:25:07;;;;;;;24.02;15.55;;;23.30;38.20;;;;;;4908602;29;20587;-94
2022/03/02 12:27:33;;;;;;;23.83;16.08;;;23.40;37.90;;;;;;4925440;29;20060;-95
2022/03/02 12:30:01;;;;;;;22.10;15.68;;;23.60;38.10;;;;;;4924021;29;20052;-95
2022/03/02 12:32:30;;;;;;;21.73;16.50;;;23.90;37.80;;;;;;4909268;29;20044;-95
2022/03/02 12:34:58;;;;;;;21.93;16.20;;;23.90;36.40;;;;;;4908935;29;20058;-95
2022/03/02 12:37:25;;;;;;;21.23;15.18;;;23.80;37.20;;;;;;4908119;29;20315;-95
2022/03/02 12:39:52;;;;;;;19.30;15.45;;;23.80;37.20;;;;;;4907267;29;20044;-95
2022/03/02 12:42:18;;;;;;;23.98;16.45;;;23.80;37.20;;;;;;4908323;29;20056;-95
2022/03/02 12:44:50;;;;;;;24.50;16.70;;;23.80;37.20;;;;;;4907321;29;20103;-94
2022/03/02 12:47:25;;;;;;;21.95;16.02;;;24.00;36.80;;;;;;4908348;29;20518;-95